This is the latest recevied weather packets stored in our database for station/object KF5VOI. If no packets are shown the sender has not sent any weather packets the latest 10 day(s).
| Time | Temp. | Humidity | Pressure | Rain* | Wind** | Luminosity | Snow |
|---|---|---|---|---|---|---|---|
| 1777947995 | 20° C | 75% | 1015.9 hPa | 0 mm | - | - | - |
| 1777946194 | 20° C | 72% | 1015.6 hPa | 0 mm | - | - | - |
| 1777944394 | 20.56° C | 70% | 1015.5 hPa | 0 mm | - | - | - |
| 1777942595 | 21.11° C | 67% | 1015.8 hPa | 0 mm | - | - | - |
| 1777940794 | 22.22° C | 63% | 1015.9 hPa | 0 mm | - | - | - |
| 1777938994 | 23.33° C | 59% | 1015.9 hPa | 0 mm | - | - | - |
| 1777937195 | 24.44° C | 55% | 1016.2 hPa | 0 mm | - | - | - |
| 1777935396 | 25.56° C | 51% | 1016.3 hPa | 0 mm | - | - | - |
| 1777933594 | 26.11° C | 48% | 1016.8 hPa | 0 mm | - | - | - |
| 1777931796 | 26.11° C | 48% | 1016.7 hPa | 0 mm | - | - | - |
| 1777929994 | 26.67° C | 44% | 1017 hPa | 0 mm | - | - | - |
| 1777928197 | 26.67° C | 45% | 1017.1 hPa | 0 mm | - | - | - |
| 1777926397 | 28.33° C | 40% | 1017.7 hPa | 0 mm | - | - | - |
| 1777924594 | 28.89° C | 40% | 1018.2 hPa | 0 mm | - | - | - |
| 1777922796 | 28.33° C | 42% | 1018.3 hPa | 0 mm | - | - | - |
| 1777920994 | 26.67° C | 45% | 1018.7 hPa | 0 mm | - | - | - |
| 1777919194 | 28.33° C | 43% | 1019 hPa | 0 mm | - | - | - |
| 1777913794 | 27.22° C | 44% | 1019.2 hPa | 0 mm | - | - | - |
| 1777911994 | 26.67° C | 45% | 1019.7 hPa | 0 mm | - | - | - |
| 1777910194 | 26.11° C | 47% | 1019.7 hPa | 0 mm | - | - | - |
| 1777908396 | 27.78° C | 47% | 1019.9 hPa | 0 mm | - | - | - |
| 1777906594 | 26.67° C | 51% | 1020 hPa | 0 mm | - | - | - |
| 1777904796 | 26.11° C | 51% | 1019.9 hPa | 0 mm | - | - | - |
| 1777902996 | 23.89° C | 58% | 1020 hPa | 0 mm | - | - | - |
| 1777899395 | 16.67° C | 86% | 1020.1 hPa | 0 mm | - | - | - |
* Rain latest hour (hover to see other rain measurements)
** Current wind speed in m/s (hover to see current wind gust speed)